createdAt,value
2017-11-23T00:01:30.644Z,3.77
2017-11-23T00:03:58.421Z,2.70
2017-11-23T00:06:26.221Z,4.10
2017-11-23T00:08:54.057Z,4.30
2017-11-23T00:11:21.805Z,4.63
2017-11-23T00:13:49.662Z,5.47
2017-11-23T00:16:17.462Z,9.73
2017-11-23T00:18:45.251Z,9.53
2017-11-23T00:21:13.068Z,6.07
2017-11-23T00:23:40.829Z,3.03
2017-11-23T00:26:08.737Z,3.57
2017-11-23T00:28:36.542Z,3.10
2017-11-23T00:31:04.596Z,4.03
2017-11-23T00:33:33.158Z,5.33
2017-11-23T00:36:01.089Z,3.90
2017-11-23T00:38:28.897Z,6.70
2017-11-23T00:40:56.748Z,5.90
2017-11-23T00:43:24.677Z,3.07
2017-11-23T00:45:52.585Z,4.30
2017-11-23T00:48:20.401Z,7.50
2017-11-23T00:50:48.233Z,6.10
2017-11-23T00:53:16.045Z,7.90
2017-11-23T00:55:44.714Z,7.17
2017-11-23T00:58:12.567Z,6.07
2017-11-23T01:00:41.197Z,12.47
2017-11-23T01:03:09.905Z,8.40
2017-11-23T01:05:37.789Z,6.63
2017-11-23T01:08:05.577Z,4.97
2017-11-23T01:10:33.392Z,8.40
2017-11-23T01:13:01.210Z,4.10
2017-11-23T01:15:29.105Z,3.83
2017-11-23T01:17:57.001Z,6.90
2017-11-23T01:20:24.820Z,13.90
2017-11-23T01:22:52.660Z,3.00
2017-11-23T01:25:21.330Z,5.80
2017-11-23T01:27:50.020Z,10.43
2017-11-23T01:30:18.614Z,6.47
2017-11-23T01:32:46.429Z,6.90
2017-11-23T01:35:14.208Z,14.13
2017-11-23T01:37:41.996Z,3.10
2017-11-23T01:40:09.904Z,2.60
2017-11-23T01:42:37.792Z,3.72
2017-11-23T01:45:05.679Z,3.70
2017-11-23T01:47:33.570Z,3.93
2017-11-23T01:50:02.263Z,3.60
2017-11-23T01:52:30.151Z,2.70
2017-11-23T01:54:58.085Z,3.33
2017-11-23T01:57:26.776Z,3.50
2017-11-23T01:59:55.490Z,6.00
2017-11-23T02:02:23.331Z,3.33
2017-11-23T02:04:51.910Z,3.67
2017-11-23T02:07:20.512Z,7.57
2017-11-23T02:09:49.138Z,4.87
2017-11-23T02:12:17.129Z,3.03
2017-11-23T02:14:44.995Z,5.13
2017-11-23T02:17:12.926Z,9.03
2017-11-23T02:19:40.949Z,3.57
2017-11-23T02:22:09.674Z,4.13
2017-11-23T02:24:37.649Z,3.33
2017-11-23T02:27:05.597Z,3.60
2017-11-23T02:29:33.540Z,5.10
2017-11-23T02:32:01.537Z,3.47
2017-11-23T02:34:29.453Z,5.77
2017-11-23T02:36:57.419Z,2.90
2017-11-23T02:39:25.355Z,2.60
2017-11-23T02:41:53.237Z,2.70
2017-11-23T02:44:21.124Z,5.20
2017-11-23T02:46:49.044Z,2.58
2017-11-23T02:49:16.920Z,3.73
2017-11-23T02:51:44.926Z,2.60
2017-11-23T02:54:12.876Z,3.37
2017-11-23T02:56:40.753Z,3.07
2017-11-23T02:59:08.696Z,2.50
2017-11-23T03:01:36.565Z,2.57
2017-11-23T03:04:04.406Z,3.87
2017-11-23T03:06:32.273Z,3.10
2017-11-23T03:09:00.219Z,8.63
2017-11-23T03:11:28.189Z,5.37
2017-11-23T03:13:56.051Z,4.20
2017-11-23T03:16:23.890Z,5.40
2017-11-23T03:18:51.823Z,8.93
2017-11-23T03:21:19.655Z,9.90
2017-11-23T03:23:48.292Z,2.87
2017-11-23T03:26:16.298Z,2.70
2017-11-23T03:28:44.113Z,2.27
2017-11-23T03:31:12.061Z,2.40
2017-11-23T03:33:39.845Z,9.13
2017-11-23T03:36:07.757Z,4.60
2017-11-23T03:38:35.615Z,5.13
2017-11-23T03:41:03.796Z,7.53
2017-11-23T03:43:31.698Z,4.57
2017-11-23T03:45:59.561Z,10.20
2017-11-23T03:48:28.161Z,2.40
2017-11-23T03:50:55.980Z,2.83
2017-11-23T03:53:23.862Z,4.20
2017-11-23T03:55:52.433Z,3.50
2017-11-23T03:58:20.230Z,1.90
2017-11-23T04:00:48.100Z,1.87
2017-11-23T04:03:15.921Z,3.23
2017-11-23T04:05:43.804Z,4.43
2017-11-23T04:08:12.393Z,3.10
2017-11-23T04:10:40.212Z,1.97
2017-11-23T04:13:08.060Z,3.10
2017-11-23T04:15:35.960Z,3.10
2017-11-23T04:18:03.834Z,2.63
2017-11-23T04:20:31.694Z,2.50
2017-11-23T04:22:59.512Z,3.63
2017-11-23T04:25:27.402Z,1.60
2017-11-23T04:27:55.262Z,3.67
2017-11-23T04:30:23.141Z,2.70
2017-11-23T04:32:50.934Z,1.80
2017-11-23T04:35:18.725Z,2.73
2017-11-23T04:37:46.687Z,5.07
2017-11-23T04:40:15.381Z,7.33
2017-11-23T04:42:44.059Z,5.40
2017-11-23T04:45:12.805Z,2.60
2017-11-23T04:47:40.724Z,4.07
2017-11-23T04:50:08.545Z,3.07
2017-11-23T04:52:36.380Z,2.70
2017-11-23T04:55:04.185Z,3.20
2017-11-23T04:57:32.084Z,4.17
2017-11-23T05:00:00.054Z,2.10
2017-11-23T05:02:28.653Z,2.67
2017-11-23T05:04:56.589Z,4.23
2017-11-23T05:07:24.459Z,1.87
2017-11-23T05:09:53.084Z,1.63
2017-11-23T05:12:20.907Z,2.03
2017-11-23T05:14:49.485Z,3.53
2017-11-23T05:17:18.079Z,3.47
2017-11-23T05:19:46.661Z,3.93
2017-11-23T05:22:15.222Z,3.83
2017-11-23T05:24:43.032Z,2.47
2017-11-23T05:27:10.854Z,5.70
2017-11-23T05:29:38.740Z,2.43
2017-11-23T05:32:07.326Z,2.30
2017-11-23T05:34:35.861Z,1.77
2017-11-23T05:37:03.689Z,5.60
2017-11-23T05:39:31.530Z,5.40
2017-11-23T05:42:00.167Z,2.67
2017-11-23T05:44:28.037Z,10.33
2017-11-23T05:46:55.920Z,7.23
2017-11-23T05:49:23.776Z,2.57
2017-11-23T05:51:51.641Z,4.43
2017-11-23T05:54:19.513Z,8.33
2017-11-23T05:56:47.363Z,5.17
2017-11-23T05:59:15.189Z,4.60
2017-11-23T06:01:43.738Z,3.20
2017-11-23T06:04:11.712Z,5.03
2017-11-23T06:06:39.625Z,2.80
2017-11-23T06:09:07.497Z,3.07
2017-11-23T06:11:35.334Z,2.43
2017-11-23T06:14:03.167Z,8.83
2017-11-23T06:16:30.962Z,13.10
2017-11-23T06:18:58.843Z,3.90
2017-11-23T06:21:26.636Z,3.23
2017-11-23T06:23:54.568Z,2.83
2017-11-23T06:26:22.458Z,3.83
2017-11-23T06:28:50.349Z,3.67
2017-11-23T06:31:18.228Z,4.50
2017-11-23T06:33:46.028Z,3.10
2017-11-23T06:36:14.612Z,10.03
2017-11-23T06:38:43.232Z,7.03
2017-11-23T06:41:11.078Z,3.60
2017-11-23T06:43:39.029Z,4.90
2017-11-23T06:46:07.049Z,5.47
2017-11-23T06:48:35.000Z,3.90
2017-11-23T06:51:02.817Z,5.27
2017-11-23T06:53:30.837Z,10.90
2017-11-23T06:55:58.653Z,6.10
2017-11-23T06:58:27.252Z,13.10
2017-11-23T07:00:55.801Z,9.67
2017-11-23T07:03:23.585Z,18.27
2017-11-23T07:05:51.602Z,15.20
2017-11-23T07:08:19.472Z,10.90
2017-11-23T07:10:47.425Z,8.60
2017-11-23T07:13:15.281Z,5.47
2017-11-23T07:15:43.272Z,11.20
2017-11-23T07:18:11.140Z,12.67
2017-11-23T07:20:38.956Z,12.40
2017-11-23T07:23:07.819Z,22.33
2017-11-23T07:25:35.783Z,8.40
2017-11-23T07:28:03.859Z,9.27
2017-11-23T07:30:32.213Z,8.83
2017-11-23T07:33:00.065Z,9.73
2017-11-23T07:35:27.921Z,13.30
2017-11-23T07:37:55.777Z,17.17
2017-11-23T07:40:23.617Z,11.27
2017-11-23T07:42:51.424Z,5.60
2017-11-23T07:45:20.073Z,10.40
2017-11-23T07:47:47.964Z,10.67
2017-11-23T07:50:15.797Z,11.00
2017-11-23T07:52:43.594Z,16.23
2017-11-23T07:55:12.210Z,9.70
2017-11-23T07:57:40.016Z,16.63
2017-11-23T08:00:07.842Z,17.90
2017-11-23T08:02:35.632Z,14.63
2017-11-23T08:05:03.519Z,9.70
2017-11-23T08:07:31.429Z,14.97
2017-11-23T08:09:59.324Z,12.90
2017-11-23T08:12:27.286Z,12.93
2017-11-23T08:14:55.684Z,11.60
2017-11-23T08:17:23.711Z,18.83
2017-11-23T08:19:52.047Z,13.73
2017-11-23T08:22:20.613Z,14.53
2017-11-23T08:24:48.480Z,14.07
2017-11-23T08:27:16.299Z,17.67
2017-11-23T08:29:44.627Z,10.20
2017-11-23T08:32:12.561Z,12.93
2017-11-23T08:34:40.432Z,10.13
2017-11-23T08:37:08.243Z,9.00
2017-11-23T08:39:36.832Z,19.90
2017-11-23T08:42:05.459Z,11.47
2017-11-23T08:44:33.491Z,18.47
2017-11-23T08:47:02.301Z,14.80
2017-11-23T08:49:30.932Z,18.83
2017-11-23T08:51:58.718Z,8.53
2017-11-23T08:54:33.267Z,12.00
2017-11-23T08:57:01.228Z,12.20
2017-11-23T08:59:29.257Z,15.13
2017-11-23T09:01:59.041Z,18.07
2017-11-23T09:04:26.869Z,20.23
2017-11-23T09:06:55.565Z,19.23
2017-11-23T09:09:23.365Z,17.33
2017-11-23T09:11:51.172Z,16.23
2017-11-23T09:14:19.859Z,20.53
2017-11-23T09:16:48.531Z,23.73
2017-11-23T09:19:17.199Z,27.10
2017-11-23T09:21:45.189Z,17.17
2017-11-23T09:24:13.825Z,11.63
2017-11-23T09:26:41.616Z,18.63
2017-11-23T09:29:09.413Z,24.03
2017-11-23T09:31:37.319Z,11.73
2017-11-23T09:34:05.204Z,15.47
2017-11-23T09:36:33.024Z,9.90
2017-11-23T09:39:01.679Z,14.53
2017-11-23T09:41:30.245Z,12.63
2017-11-23T09:43:58.064Z,8.90
2017-11-23T09:46:25.897Z,7.10
2017-11-23T09:48:53.738Z,7.03
2017-11-23T09:51:22.415Z,18.90
2017-11-23T09:53:50.293Z,14.00
2017-11-23T09:56:18.073Z,19.80
2017-11-23T09:58:45.880Z,13.00
2017-11-23T10:01:13.648Z,5.63
2017-11-23T10:03:41.518Z,16.43
2017-11-23T10:06:09.334Z,15.43
2017-11-23T10:08:37.192Z,4.13
2017-11-23T10:11:04.964Z,7.30
2017-11-23T10:13:32.767Z,4.90
2017-11-23T10:16:00.536Z,5.47
2017-11-23T10:18:28.353Z,10.33
2017-11-23T10:20:56.161Z,6.33
2017-11-23T10:23:24.006Z,6.97
2017-11-23T10:25:52.861Z,6.83
2017-11-23T10:28:20.658Z,13.07
2017-11-23T10:30:49.239Z,6.70
2017-11-23T10:33:17.909Z,6.47
2017-11-23T10:35:46.055Z,4.43
2017-11-23T10:38:14.232Z,4.37
2017-11-23T10:40:42.054Z,9.50
2017-11-23T10:43:09.991Z,5.17
2017-11-23T10:45:38.566Z,4.83
2017-11-23T10:48:06.432Z,5.67
2017-11-23T10:50:34.362Z,9.63
2017-11-23T10:53:02.224Z,11.33
2017-11-23T10:55:30.068Z,13.03
2017-11-23T10:57:57.898Z,11.25
2017-11-23T11:00:25.769Z,15.40
2017-11-23T11:02:54.371Z,12.67
2017-11-23T11:05:23.114Z,16.20
2017-11-23T11:07:50.945Z,15.23
2017-11-23T11:10:19.991Z,18.67
2017-11-23T11:12:47.914Z,15.80
2017-11-23T11:15:16.012Z,15.80
2017-11-23T11:17:44.746Z,14.50
2017-11-23T11:20:13.346Z,15.83
2017-11-23T11:22:41.183Z,16.60
2017-11-23T11:25:09.850Z,19.63
2017-11-23T11:27:37.660Z,20.60
2017-11-23T11:30:05.460Z,22.87
2017-11-23T11:32:33.290Z,21.10
2017-11-23T11:35:01.181Z,25.03
2017-11-23T11:37:28.987Z,23.40
2017-11-23T11:39:57.585Z,25.70
2017-11-23T11:42:26.192Z,22.37
2017-11-23T11:44:54.010Z,28.27
2017-11-23T11:47:21.859Z,27.20
2017-11-23T11:49:49.873Z,27.77
2017-11-23T11:52:18.542Z,24.90
2017-11-23T11:54:46.420Z,23.97
2017-11-23T11:57:15.020Z,25.60
2017-11-23T11:59:42.844Z,20.40
2017-11-23T12:02:10.700Z,41.10
2017-11-23T12:04:38.796Z,20.83
2017-11-23T12:07:06.631Z,22.33
2017-11-23T12:09:34.574Z,20.63
2017-11-23T12:12:03.014Z,17.97
2017-11-23T12:14:31.685Z,23.40
2017-11-23T12:17:24.265Z,18.23
2017-11-23T12:20:04.609Z,16.90
2017-11-23T12:22:35.121Z,24.83
2017-11-23T12:25:03.152Z,19.23
2017-11-23T12:27:42.815Z,18.20
2017-11-23T12:30:12.599Z,17.87
2017-11-23T12:32:40.469Z,15.17
2017-11-23T12:35:08.332Z,14.20
2017-11-23T12:37:36.114Z,13.27
2017-11-23T12:40:03.943Z,12.07
2017-11-23T12:42:31.774Z,10.30
2017-11-23T12:44:59.650Z,13.07
2017-11-23T12:47:28.324Z,8.83
2017-11-23T12:49:56.202Z,11.03
2017-11-23T12:52:24.795Z,9.43
2017-11-23T12:54:53.842Z,9.53
2017-11-23T12:57:21.670Z,8.55
2017-11-23T12:59:49.505Z,9.60
2017-11-23T13:02:17.316Z,10.48
2017-11-23T13:04:45.120Z,8.60
2017-11-23T13:07:13.358Z,10.88
2017-11-23T13:09:41.136Z,22.80
2017-11-23T13:12:08.956Z,14.20
2017-11-23T13:14:37.523Z,9.93
2017-11-23T13:17:06.104Z,8.93
2017-11-23T13:19:34.701Z,7.20
2017-11-23T13:22:03.489Z,7.30
2017-11-23T13:24:32.169Z,6.90
2017-11-23T13:27:00.980Z,20.37
2017-11-23T13:29:28.778Z,6.37
2017-11-23T13:31:56.662Z,7.67
2017-11-23T13:34:24.438Z,8.10
2017-11-23T13:36:52.657Z,8.90
2017-11-23T13:39:20.606Z,11.97
2017-11-23T13:41:49.190Z,8.90
2017-11-23T13:44:16.992Z,9.80
2017-11-23T13:46:44.826Z,8.53
2017-11-23T13:49:12.712Z,5.57
2017-11-23T13:51:40.659Z,10.70
2017-11-23T13:54:08.747Z,7.93
2017-11-23T13:56:36.610Z,7.40
2017-11-23T13:59:04.501Z,7.63
2017-11-23T14:01:32.644Z,8.93
2017-11-23T14:04:00.473Z,7.53
2017-11-23T14:06:28.296Z,10.07
2017-11-23T14:08:56.208Z,8.37
2017-11-23T14:11:24.044Z,11.60
2017-11-23T14:13:51.890Z,12.30
2017-11-23T14:16:19.769Z,12.33
2017-11-23T14:18:47.666Z,10.37
2017-11-23T14:21:16.556Z,9.57
2017-11-23T14:23:44.584Z,11.10
2017-11-23T14:26:12.525Z,9.27
2017-11-23T14:28:41.164Z,8.87
2017-11-23T14:31:09.013Z,10.30
2017-11-23T14:33:36.915Z,14.20
2017-11-23T14:36:04.782Z,8.90
2017-11-23T14:38:32.689Z,10.90
2017-11-23T14:41:00.556Z,9.87
2017-11-23T14:43:28.504Z,9.63
2017-11-23T14:45:57.249Z,11.30
2017-11-23T14:48:25.916Z,9.87
2017-11-23T14:50:53.855Z,11.27
2017-11-23T14:53:21.721Z,11.30
2017-11-23T14:55:49.617Z,13.17
2017-11-23T14:58:17.468Z,11.13
2017-11-23T15:00:45.735Z,12.60
2017-11-23T15:03:13.790Z,12.03
2017-11-23T15:05:42.480Z,11.53
2017-11-23T15:08:10.408Z,12.90
2017-11-23T15:10:38.301Z,10.10
2017-11-23T15:13:06.941Z,18.63
2017-11-23T15:15:35.110Z,10.93
2017-11-23T15:18:03.037Z,10.20
2017-11-23T15:20:31.922Z,9.37
2017-11-23T15:23:00.492Z,11.90
2017-11-23T15:25:28.321Z,14.20
2017-11-23T15:27:56.406Z,13.17
2017-11-23T15:30:24.260Z,14.17
2017-11-23T15:32:52.500Z,14.13
2017-11-23T15:35:20.308Z,10.77
2017-11-23T15:37:48.493Z,14.90
2017-11-23T15:40:17.212Z,14.45
2017-11-23T15:42:45.809Z,12.43
2017-11-23T15:45:13.651Z,11.97
2017-11-23T15:47:42.233Z,12.00
2017-11-23T15:50:10.956Z,16.37
2017-11-23T15:52:38.841Z,12.18
2017-11-23T15:55:06.671Z,10.63
2017-11-23T15:57:35.224Z,14.00
2017-11-23T16:00:03.039Z,14.90
2017-11-23T16:02:31.187Z,12.23
2017-11-23T16:04:59.022Z,15.20
2017-11-23T16:07:27.143Z,14.85
2017-11-23T16:09:54.972Z,15.30
2017-11-23T16:12:22.899Z,13.70
2017-11-23T16:14:50.832Z,18.70
2017-11-23T16:17:18.638Z,18.40
2017-11-23T16:19:46.497Z,13.33
2017-11-23T16:22:14.374Z,20.10
2017-11-23T16:24:43.118Z,16.90
2017-11-23T16:27:11.046Z,18.40
2017-11-23T16:29:38.980Z,18.70
2017-11-23T16:32:07.638Z,16.70
2017-11-23T16:34:35.593Z,17.00
2017-11-23T16:37:13.441Z,15.97
2017-11-23T16:39:41.337Z,17.03
2017-11-23T16:42:12.647Z,15.67
2017-11-23T16:44:58.233Z,16.03
2017-11-23T16:47:31.826Z,15.97
2017-11-23T16:50:14.518Z,15.23
2017-11-23T16:52:57.280Z,18.10
2017-11-23T16:55:30.772Z,16.70
2017-11-23T16:58:09.337Z,16.80
2017-11-23T17:00:52.168Z,19.77
2017-11-23T17:03:26.619Z,20.00
2017-11-23T17:06:00.205Z,23.97
2017-11-23T17:08:29.356Z,22.30
2017-11-23T17:11:02.893Z,23.10
2017-11-23T17:13:47.425Z,26.33
2017-11-23T17:16:20.780Z,23.57
2017-11-23T17:18:51.166Z,27.13
2017-11-23T17:21:19.060Z,28.13
2017-11-23T17:23:46.866Z,27.70
2017-11-23T17:26:14.712Z,29.70
2017-11-23T17:28:42.523Z,30.50
2017-11-23T17:31:10.363Z,30.53
2017-11-23T17:33:39.097Z,32.37
2017-11-23T17:36:07.019Z,31.10
2017-11-23T17:38:35.863Z,30.37
2017-11-23T17:41:05.041Z,28.83
2017-11-23T17:43:32.939Z,31.10
2017-11-23T17:46:00.788Z,29.03
2017-11-23T17:48:29.777Z,30.30
2017-11-23T17:50:58.449Z,26.70
2017-11-23T17:53:26.321Z,28.70
2017-11-23T17:55:54.222Z,27.80
2017-11-23T17:58:22.125Z,26.40
2017-11-23T18:00:50.687Z,27.80
2017-11-23T18:03:18.607Z,29.20
2017-11-23T18:05:49.467Z,30.10
2017-11-23T18:08:17.337Z,29.93
2017-11-23T18:10:45.268Z,29.50
2017-11-23T18:13:13.348Z,30.10
2017-11-23T18:15:41.479Z,29.90
2017-11-23T18:18:10.170Z,32.40
2017-11-23T18:20:38.764Z,27.10
2017-11-23T18:23:06.629Z,29.80
2017-11-23T18:25:34.497Z,30.87
2017-11-23T18:28:02.530Z,26.40
2017-11-23T18:30:30.342Z,28.70
2017-11-23T18:32:58.191Z,26.47
2017-11-23T18:35:26.016Z,28.10
2017-11-23T18:37:54.045Z,22.53
2017-11-23T18:40:21.848Z,23.40
2017-11-23T18:42:49.666Z,23.07
2017-11-23T18:45:17.605Z,24.73
2017-11-23T18:47:46.211Z,23.23
2017-11-23T18:50:14.947Z,24.17
2017-11-23T18:52:42.925Z,25.83
2017-11-23T18:55:10.743Z,53.20
2017-11-23T18:57:38.593Z,35.33
2017-11-23T19:00:07.162Z,115.50
2017-11-23T19:02:35.001Z,37.53
2017-11-23T19:05:02.820Z,40.10
2017-11-23T19:07:31.554Z,64.40
2017-11-23T19:10:02.106Z,89.67
2017-11-23T19:12:30.582Z,65.57
2017-11-23T19:14:58.456Z,70.23
2017-11-23T19:17:27.865Z,61.13
2017-11-23T19:19:56.490Z,89.05
2017-11-23T19:22:24.365Z,64.40
2017-11-23T19:24:52.185Z,70.37
2017-11-23T19:27:20.785Z,50.87
2017-11-23T19:29:48.679Z,45.63
2017-11-23T19:32:16.578Z,38.60
2017-11-23T19:34:45.231Z,39.93
2017-11-23T19:37:13.113Z,60.33
2017-11-23T19:39:41.485Z,40.43
2017-11-23T19:42:09.460Z,36.00
2017-11-23T19:44:37.761Z,48.80
2017-11-23T19:47:06.531Z,62.43
2017-11-23T19:49:34.500Z,39.90
2017-11-23T19:52:03.663Z,40.70
2017-11-23T19:54:32.433Z,63.23
2017-11-23T19:57:00.278Z,48.97
2017-11-23T19:59:28.833Z,54.37
2017-11-23T20:01:56.694Z,56.40
2017-11-23T20:04:24.566Z,34.63
2017-11-23T20:06:52.376Z,44.40
2017-11-23T20:09:20.313Z,55.37
2017-11-23T20:11:48.127Z,40.33
2017-11-23T20:14:15.918Z,54.23
2017-11-23T20:16:43.786Z,30.73
2017-11-23T20:19:11.587Z,36.87
2017-11-23T20:21:40.232Z,42.37
2017-11-23T20:24:08.119Z,36.90
2017-11-23T20:26:35.972Z,43.07
2017-11-23T20:29:03.878Z,44.37
2017-11-23T20:31:32.452Z,40.63
2017-11-23T20:34:00.285Z,30.50
2017-11-23T20:36:28.129Z,32.03
2017-11-23T20:38:55.949Z,48.97
2017-11-23T20:41:24.684Z,38.80
2017-11-23T20:43:52.541Z,40.60
2017-11-23T20:46:20.485Z,34.38
2017-11-23T20:48:48.415Z,33.13
2017-11-23T20:51:27.070Z,32.87
2017-11-23T20:53:55.629Z,31.00
2017-11-23T20:56:23.575Z,33.83
2017-11-23T20:58:51.371Z,37.07
2017-11-23T21:01:19.382Z,31.60
2017-11-23T21:03:47.137Z,27.27
2017-11-23T21:06:14.974Z,35.40
2017-11-23T21:08:43.617Z,29.33
2017-11-23T21:11:17.640Z,27.40
2017-11-23T21:13:50.169Z,26.33
2017-11-23T21:16:18.597Z,26.50
2017-11-23T21:18:46.440Z,27.03
2017-11-23T21:21:14.210Z,29.43
2017-11-23T21:23:48.490Z,32.60
2017-11-23T21:26:16.803Z,30.57
2017-11-23T21:28:44.656Z,33.63
2017-11-23T21:31:12.465Z,45.77
2017-11-23T21:33:40.252Z,30.63
2017-11-23T21:36:08.808Z,34.70
2017-11-23T21:38:36.685Z,36.03
2017-11-23T21:41:05.440Z,35.37
2017-11-23T21:43:33.488Z,32.87
2017-11-23T21:46:01.417Z,33.47
2017-11-23T21:48:30.047Z,34.40
2017-11-23T21:50:57.996Z,28.13
2017-11-23T21:53:25.903Z,32.33
2017-11-23T21:55:53.900Z,47.77
2017-11-23T21:58:21.741Z,35.03
2017-11-23T22:00:49.518Z,31.17
2017-11-23T22:03:17.289Z,36.73
2017-11-23T22:05:45.696Z,26.23
2017-11-23T22:08:13.481Z,23.90
2017-11-23T22:10:41.385Z,25.30
2017-11-23T22:13:09.477Z,16.27
2017-11-23T22:15:38.027Z,15.20
2017-11-23T22:18:05.823Z,18.23
2017-11-23T22:20:35.434Z,25.10
2017-11-23T22:23:03.313Z,19.60
2017-11-23T22:25:31.862Z,21.53
2017-11-23T22:27:59.662Z,18.77
2017-11-23T22:30:28.328Z,18.47
2017-11-23T22:32:56.892Z,24.20
2017-11-23T22:35:25.276Z,22.90
2017-11-23T22:37:53.424Z,22.47
2017-11-23T22:40:21.202Z,22.47
2017-11-23T22:42:49.199Z,19.83
2017-11-23T22:45:17.250Z,19.30
2017-11-23T22:47:45.064Z,19.80
2017-11-23T22:50:13.181Z,17.47
2017-11-23T22:52:41.017Z,16.27
2017-11-23T22:55:08.849Z,15.47
2017-11-23T22:57:36.657Z,13.37
2017-11-23T23:00:04.553Z,15.37
2017-11-23T23:02:32.320Z,17.33
2017-11-23T23:05:00.126Z,19.43
2017-11-23T23:07:28.232Z,16.33
2017-11-23T23:09:56.230Z,18.13
2017-11-23T23:12:23.996Z,11.25
2017-11-23T23:14:51.774Z,15.20
2017-11-23T23:17:20.333Z,11.40
2017-11-23T23:19:48.166Z,16.37
2017-11-23T23:22:16.034Z,19.23
2017-11-23T23:24:43.901Z,12.27
2017-11-23T23:27:11.729Z,17.20
2017-11-23T23:29:39.647Z,19.97
2017-11-23T23:32:07.421Z,22.70
2017-11-23T23:34:35.217Z,14.73
2017-11-23T23:37:03.827Z,21.77
2017-11-23T23:39:31.732Z,17.30
2017-11-23T23:41:59.636Z,19.27
2017-11-23T23:44:28.219Z,22.47
2017-11-23T23:46:56.059Z,20.23
2017-11-23T23:49:23.825Z,18.00
2017-11-23T23:51:51.597Z,16.30
2017-11-23T23:54:19.521Z,21.30
2017-11-23T23:56:47.451Z,25.60
2017-11-23T23:59:15.413Z,21.07
